sensor_id;sensor_type;location;lat;lon;timestamp;P1;durP1;ratioP1;P2;durP2;ratioP2
42760;SDS011;31672;47.638;19.026;2022-07-29T00:01:57;2.88;;;2.25;;
42760;SDS011;31672;47.638;19.026;2022-07-29T00:07:00;3.15;;;2.33;;
42760;SDS011;31672;47.638;19.026;2022-07-29T00:12:03;5.05;;;2.17;;
42760;SDS011;31672;47.638;19.026;2022-07-29T00:17:10;2.78;;;2.10;;
42760;SDS011;31672;47.638;19.026;2022-07-29T00:22:19;2.80;;;2.17;;
42760;SDS011;31672;47.638;19.026;2022-07-29T00:27:23;4.55;;;2.40;;
42760;SDS011;31672;47.638;19.026;2022-07-29T00:32:27;3.33;;;2.20;;
42760;SDS011;31672;47.638;19.026;2022-07-29T00:37:30;3.13;;;2.15;;
42760;SDS011;31672;47.638;19.026;2022-07-29T00:42:46;3.63;;;2.25;;
42760;SDS011;31672;47.638;19.026;2022-07-29T00:47:51;3.47;;;2.20;;
42760;SDS011;31672;47.638;19.026;2022-07-29T00:52:54;2.33;;;2.03;;
42760;SDS011;31672;47.638;19.026;2022-07-29T00:57:58;2.42;;;2.17;;
42760;SDS011;31672;47.638;19.026;2022-07-29T01:03:01;3.20;;;2.40;;
42760;SDS011;31672;47.638;19.026;2022-07-29T01:08:05;2.70;;;2.22;;
42760;SDS011;31672;47.638;19.026;2022-07-29T01:13:09;4.00;;;2.20;;
42760;SDS011;31672;47.638;19.026;2022-07-29T01:18:18;4.47;;;2.20;;
42760;SDS011;31672;47.638;19.026;2022-07-29T01:29:30;3.80;;;2.20;;
42760;SDS011;31672;47.638;19.026;2022-07-29T01:34:49;2.83;;;2.40;;
42760;SDS011;31672;47.638;19.026;2022-07-29T01:40:03;2.72;;;2.20;;
42760;SDS011;31672;47.638;19.026;2022-07-29T01:56:29;4.47;;;2.40;;
42760;SDS011;31672;47.638;19.026;2022-07-29T02:01:36;2.95;;;2.40;;
42760;SDS011;31672;47.638;19.026;2022-07-29T02:06:42;5.93;;;2.58;;
42760;SDS011;31672;47.638;19.026;2022-07-29T02:11:48;2.83;;;2.22;;
42760;SDS011;31672;47.638;19.026;2022-07-29T02:16:55;3.25;;;2.20;;
42760;SDS011;31672;47.638;19.026;2022-07-29T02:22:00;2.88;;;2.22;;
42760;SDS011;31672;47.638;19.026;2022-07-29T02:27:03;2.88;;;2.40;;
42760;SDS011;31672;47.638;19.026;2022-07-29T02:32:07;3.58;;;2.30;;
42760;SDS011;31672;47.638;19.026;2022-07-29T02:37:13;3.78;;;2.60;;
42760;SDS011;31672;47.638;19.026;2022-07-29T02:42:19;5.20;;;2.38;;
42760;SDS011;31672;47.638;19.026;2022-07-29T02:47:27;2.92;;;2.58;;
42760;SDS011;31672;47.638;19.026;2022-07-29T02:53:05;5.68;;;2.58;;
42760;SDS011;31672;47.638;19.026;2022-07-29T02:58:33;4.28;;;2.20;;
42760;SDS011;31672;47.638;19.026;2022-07-29T03:03:39;3.92;;;2.67;;
42760;SDS011;31672;47.638;19.026;2022-07-29T03:08:47;5.35;;;2.42;;
42760;SDS011;31672;47.638;19.026;2022-07-29T03:13:51;4.55;;;2.90;;
42760;SDS011;31672;47.638;19.026;2022-07-29T03:18:54;8.93;;;4.88;;
42760;SDS011;31672;47.638;19.026;2022-07-29T03:23:58;3.47;;;2.92;;
42760;SDS011;31672;47.638;19.026;2022-07-29T03:29:01;4.97;;;2.80;;
42760;SDS011;31672;47.638;19.026;2022-07-29T03:34:04;3.35;;;2.50;;
42760;SDS011;31672;47.638;19.026;2022-07-29T03:39:06;3.70;;;2.90;;
42760;SDS011;31672;47.638;19.026;2022-07-29T03:44:12;4.28;;;2.45;;
42760;SDS011;31672;47.638;19.026;2022-07-29T03:49:18;4.95;;;2.55;;
42760;SDS011;31672;47.638;19.026;2022-07-29T03:54:23;4.05;;;3.30;;
42760;SDS011;31672;47.638;19.026;2022-07-29T03:59:27;4.38;;;3.25;;
42760;SDS011;31672;47.638;19.026;2022-07-29T04:04:33;6.75;;;3.30;;
42760;SDS011;31672;47.638;19.026;2022-07-29T04:09:37;4.55;;;3.30;;
42760;SDS011;31672;47.638;19.026;2022-07-29T04:14:40;4.15;;;3.10;;
42760;SDS011;31672;47.638;19.026;2022-07-29T04:19:45;3.70;;;3.10;;
42760;SDS011;31672;47.638;19.026;2022-07-29T04:24:48;6.55;;;3.22;;
42760;SDS011;31672;47.638;19.026;2022-07-29T04:29:51;6.28;;;3.45;;
42760;SDS011;31672;47.638;19.026;2022-07-29T04:34:58;4.85;;;3.22;;
42760;SDS011;31672;47.638;19.026;2022-07-29T04:40:02;5.40;;;3.10;;
42760;SDS011;31672;47.638;19.026;2022-07-29T04:45:05;5.13;;;3.40;;
42760;SDS011;31672;47.638;19.026;2022-07-29T04:50:09;5.35;;;3.47;;
42760;SDS011;31672;47.638;19.026;2022-07-29T04:55:12;5.78;;;3.40;;
42760;SDS011;31672;47.638;19.026;2022-07-29T05:00:15;4.90;;;2.90;;
42760;SDS011;31672;47.638;19.026;2022-07-29T05:05:18;4.80;;;3.33;;
42760;SDS011;31672;47.638;19.026;2022-07-29T05:10:21;3.40;;;3.10;;
42760;SDS011;31672;47.638;19.026;2022-07-29T05:15:25;7.18;;;3.83;;
42760;SDS011;31672;47.638;19.026;2022-07-29T05:20:28;6.15;;;3.00;;
42760;SDS011;31672;47.638;19.026;2022-07-29T05:25:32;3.65;;;3.10;;
42760;SDS011;31672;47.638;19.026;2022-07-29T05:30:45;3.63;;;2.90;;
42760;SDS011;31672;47.638;19.026;2022-07-29T05:35:49;5.32;;;2.90;;
42760;SDS011;31672;47.638;19.026;2022-07-29T05:40:51;6.10;;;3.28;;
42760;SDS011;31672;47.638;19.026;2022-07-29T05:45:54;6.72;;;3.03;;
42760;SDS011;31672;47.638;19.026;2022-07-29T05:50:58;3.40;;;2.83;;
42760;SDS011;31672;47.638;19.026;2022-07-29T05:56:04;3.85;;;2.90;;
42760;SDS011;31672;47.638;19.026;2022-07-29T06:01:07;3.90;;;3.40;;
42760;SDS011;31672;47.638;19.026;2022-07-29T06:06:10;4.28;;;2.88;;
42760;SDS011;31672;47.638;19.026;2022-07-29T06:11:13;4.60;;;2.90;;
42760;SDS011;31672;47.638;19.026;2022-07-29T06:16:16;6.70;;;3.22;;
42760;SDS011;31672;47.638;19.026;2022-07-29T06:21:31;7.75;;;3.80;;
42760;SDS011;31672;47.638;19.026;2022-07-29T06:26:34;7.95;;;3.35;;
42760;SDS011;31672;47.638;19.026;2022-07-29T06:31:40;13.13;;;4.05;;
42760;SDS011;31672;47.638;19.026;2022-07-29T06:36:43;7.93;;;3.08;;
42760;SDS011;31672;47.638;19.026;2022-07-29T06:41:48;8.32;;;3.75;;
42760;SDS011;31672;47.638;19.026;2022-07-29T06:46:52;4.03;;;3.03;;
42760;SDS011;31672;47.638;19.026;2022-07-29T06:51:56;5.88;;;3.42;;
42760;SDS011;31672;47.638;19.026;2022-07-29T06:56:59;5.28;;;3.30;;
42760;SDS011;31672;47.638;19.026;2022-07-29T07:02:02;8.40;;;2.95;;
42760;SDS011;31672;47.638;19.026;2022-07-29T07:07:05;7.75;;;3.22;;
42760;SDS011;31672;47.638;19.026;2022-07-29T07:12:08;5.90;;;3.40;;
42760;SDS011;31672;47.638;19.026;2022-07-29T07:17:11;5.47;;;3.40;;
42760;SDS011;31672;47.638;19.026;2022-07-29T07:22:14;4.15;;;2.90;;
42760;SDS011;31672;47.638;19.026;2022-07-29T07:27:16;4.47;;;3.30;;
42760;SDS011;31672;47.638;19.026;2022-07-29T07:32:19;7.53;;;3.70;;
42760;SDS011;31672;47.638;19.026;2022-07-29T07:37:22;4.55;;;3.15;;
42760;SDS011;31672;47.638;19.026;2022-07-29T07:42:27;5.68;;;2.95;;
42760;SDS011;31672;47.638;19.026;2022-07-29T07:47:30;6.72;;;3.35;;
42760;SDS011;31672;47.638;19.026;2022-07-29T07:52:37;6.43;;;3.58;;
42760;SDS011;31672;47.638;19.026;2022-07-29T07:57:53;5.32;;;3.47;;
42760;SDS011;31672;47.638;19.026;2022-07-29T08:02:56;5.55;;;3.10;;
42760;SDS011;31672;47.638;19.026;2022-07-29T08:07:59;6.57;;;3.25;;
42760;SDS011;31672;47.638;19.026;2022-07-29T08:13:03;7.55;;;3.08;;
42760;SDS011;31672;47.638;19.026;2022-07-29T08:18:08;3.60;;;2.92;;
42760;SDS011;31672;47.638;19.026;2022-07-29T08:23:11;4.90;;;2.90;;
42760;SDS011;31672;47.638;19.026;2022-07-29T08:28:14;7.95;;;3.25;;
42760;SDS011;31672;47.638;19.026;2022-07-29T08:33:17;4.30;;;3.22;;
42760;SDS011;31672;47.638;19.026;2022-07-29T08:38:20;6.22;;;3.05;;
42760;SDS011;31672;47.638;19.026;2022-07-29T08:43:24;5.25;;;3.03;;
42760;SDS011;31672;47.638;19.026;2022-07-29T08:48:27;5.40;;;3.03;;
42760;SDS011;31672;47.638;19.026;2022-07-29T08:53:30;6.82;;;3.10;;
42760;SDS011;31672;47.638;19.026;2022-07-29T08:58:34;7.75;;;3.10;;
42760;SDS011;31672;47.638;19.026;2022-07-29T09:03:39;10.85;;;2.92;;
42760;SDS011;31672;47.638;19.026;2022-07-29T09:08:44;8.55;;;3.25;;
42760;SDS011;31672;47.638;19.026;2022-07-29T09:13:48;5.25;;;2.83;;
42760;SDS011;31672;47.638;19.026;2022-07-29T09:18:51;4.82;;;2.92;;
42760;SDS011;31672;47.638;19.026;2022-07-29T09:34:24;6.40;;;2.90;;
42760;SDS011;31672;47.638;19.026;2022-07-29T09:44:46;4.85;;;2.78;;
42760;SDS011;31672;47.638;19.026;2022-07-29T09:49:52;4.45;;;2.53;;
42760;SDS011;31672;47.638;19.026;2022-07-29T09:55:04;6.57;;;3.03;;
42760;SDS011;31672;47.638;19.026;2022-07-29T10:00:19;9.23;;;2.85;;
42760;SDS011;31672;47.638;19.026;2022-07-29T10:05:25;4.93;;;2.65;;
42760;SDS011;31672;47.638;19.026;2022-07-29T10:10:38;6.78;;;2.90;;
42760;SDS011;31672;47.638;19.026;2022-07-29T10:15:44;3.90;;;2.58;;
42760;SDS011;31672;47.638;19.026;2022-07-29T10:20:48;3.42;;;2.47;;
42760;SDS011;31672;47.638;19.026;2022-07-29T10:25:52;5.53;;;2.50;;
42760;SDS011;31672;47.638;19.026;2022-07-29T10:30:58;3.40;;;2.38;;
42760;SDS011;31672;47.638;19.026;2022-07-29T10:36:54;3.90;;;2.22;;
42760;SDS011;31672;47.638;19.026;2022-07-29T10:52:57;5.45;;;3.03;;
42760;SDS011;31672;47.638;19.026;2022-07-29T10:58:17;5.72;;;2.65;;
42760;SDS011;31672;47.638;19.026;2022-07-29T11:03:42;4.05;;;2.38;;
42760;SDS011;31672;47.638;19.026;2022-07-29T11:09:14;6.85;;;2.15;;
42760;SDS011;31672;47.638;19.026;2022-07-29T11:31:42;3.53;;;2.50;;
42760;SDS011;31672;47.638;19.026;2022-07-29T11:37:36;6.80;;;2.50;;
42760;SDS011;31672;47.638;19.026;2022-07-29T11:47:34;2.75;;;2.17;;
42760;SDS011;31672;47.638;19.026;2022-07-29T11:52:41;4.43;;;2.25;;
42760;SDS011;31672;47.638;19.026;2022-07-29T11:57:56;2.20;;;1.77;;
42760;SDS011;31672;47.638;19.026;2022-07-29T12:03:06;6.88;;;2.05;;
42760;SDS011;31672;47.638;19.026;2022-07-29T12:08:16;6.03;;;2.78;;
42760;SDS011;31672;47.638;19.026;2022-07-29T12:13:21;4.45;;;2.22;;
42760;SDS011;31672;47.638;19.026;2022-07-29T12:18:38;3.20;;;2.20;;
42760;SDS011;31672;47.638;19.026;2022-07-29T12:23:42;4.28;;;2.35;;
42760;SDS011;31672;47.638;19.026;2022-07-29T12:28:56;6.88;;;2.00;;
42760;SDS011;31672;47.638;19.026;2022-07-29T12:34:03;3.75;;;1.80;;
42760;SDS011;31672;47.638;19.026;2022-07-29T12:39:06;5.55;;;2.25;;
42760;SDS011;31672;47.638;19.026;2022-07-29T12:44:11;4.72;;;2.60;;
42760;SDS011;31672;47.638;19.026;2022-07-29T12:49:21;3.22;;;1.98;;
42760;SDS011;31672;47.638;19.026;2022-07-29T12:54:25;3.83;;;2.00;;
42760;SDS011;31672;47.638;19.026;2022-07-29T12:59:28;2.03;;;1.77;;
42760;SDS011;31672;47.638;19.026;2022-07-29T13:04:31;3.00;;;1.90;;
42760;SDS011;31672;47.638;19.026;2022-07-29T13:09:38;2.70;;;1.85;;
42760;SDS011;31672;47.638;19.026;2022-07-29T13:14:44;6.22;;;2.10;;
42760;SDS011;31672;47.638;19.026;2022-07-29T13:24:56;6.50;;;2.13;;
42760;SDS011;31672;47.638;19.026;2022-07-29T13:30:08;4.18;;;1.88;;
42760;SDS011;31672;47.638;19.026;2022-07-29T13:35:12;2.47;;;1.67;;
42760;SDS011;31672;47.638;19.026;2022-07-29T13:40:15;3.65;;;2.28;;
42760;SDS011;31672;47.638;19.026;2022-07-29T13:45:18;3.25;;;2.35;;
42760;SDS011;31672;47.638;19.026;2022-07-29T13:50:21;3.55;;;2.42;;
42760;SDS011;31672;47.638;19.026;2022-07-29T13:55:24;2.75;;;1.92;;
42760;SDS011;31672;47.638;19.026;2022-07-29T14:00:27;3.08;;;2.33;;
42760;SDS011;31672;47.638;19.026;2022-07-29T14:05:30;3.25;;;2.40;;
42760;SDS011;31672;47.638;19.026;2022-07-29T14:10:33;2.38;;;1.95;;
42760;SDS011;31672;47.638;19.026;2022-07-29T14:15:36;3.75;;;2.08;;
42760;SDS011;31672;47.638;19.026;2022-07-29T14:20:40;4.63;;;2.30;;
42760;SDS011;31672;47.638;19.026;2022-07-29T14:25:43;4.60;;;2.60;;
42760;SDS011;31672;47.638;19.026;2022-07-29T14:30:46;4.30;;;2.50;;
42760;SDS011;31672;47.638;19.026;2022-07-29T14:35:49;4.10;;;2.10;;
42760;SDS011;31672;47.638;19.026;2022-07-29T14:40:52;4.20;;;2.10;;
42760;SDS011;31672;47.638;19.026;2022-07-29T14:45:55;6.88;;;2.22;;
42760;SDS011;31672;47.638;19.026;2022-07-29T14:51:06;3.05;;;2.30;;
42760;SDS011;31672;47.638;19.026;2022-07-29T14:56:09;3.03;;;2.15;;
42760;SDS011;31672;47.638;19.026;2022-07-29T15:01:32;2.63;;;1.95;;
42760;SDS011;31672;47.638;19.026;2022-07-29T15:06:35;6.20;;;2.00;;
42760;SDS011;31672;47.638;19.026;2022-07-29T15:11:38;2.63;;;2.20;;
42760;SDS011;31672;47.638;19.026;2022-07-29T15:16:41;8.15;;;2.10;;
42760;SDS011;31672;47.638;19.026;2022-07-29T15:21:49;4.60;;;2.30;;
42760;SDS011;31672;47.638;19.026;2022-07-29T15:26:52;7.72;;;2.15;;
42760;SDS011;31672;47.638;19.026;2022-07-29T15:31:55;5.53;;;2.20;;
42760;SDS011;31672;47.638;19.026;2022-07-29T15:36:59;3.35;;;1.98;;
42760;SDS011;31672;47.638;19.026;2022-07-29T15:42:02;3.85;;;2.30;;
42760;SDS011;31672;47.638;19.026;2022-07-29T15:47:05;2.42;;;1.95;;
42760;SDS011;31672;47.638;19.026;2022-07-29T15:52:09;3.67;;;2.53;;
42760;SDS011;31672;47.638;19.026;2022-07-29T15:57:13;5.03;;;2.35;;
42760;SDS011;31672;47.638;19.026;2022-07-29T16:02:16;4.45;;;2.53;;
42760;SDS011;31672;47.638;19.026;2022-07-29T16:07:19;3.15;;;1.65;;
42760;SDS011;31672;47.638;19.026;2022-07-29T16:12:24;4.28;;;2.35;;
42760;SDS011;31672;47.638;19.026;2022-07-29T16:17:27;3.55;;;2.58;;
42760;SDS011;31672;47.638;19.026;2022-07-29T16:22:30;4.05;;;2.35;;
42760;SDS011;31672;47.638;19.026;2022-07-29T16:27:33;3.40;;;2.50;;
42760;SDS011;31672;47.638;19.026;2022-07-29T16:32:39;4.22;;;2.05;;
42760;SDS011;31672;47.638;19.026;2022-07-29T16:37:42;3.97;;;2.28;;
42760;SDS011;31672;47.638;19.026;2022-07-29T16:42:44;6.18;;;2.30;;
42760;SDS011;31672;47.638;19.026;2022-07-29T16:47:48;2.72;;;2.13;;
42760;SDS011;31672;47.638;19.026;2022-07-29T16:52:52;4.35;;;2.33;;
42760;SDS011;31672;47.638;19.026;2022-07-29T16:57:55;5.72;;;2.15;;
42760;SDS011;31672;47.638;19.026;2022-07-29T17:02:58;3.45;;;2.15;;
42760;SDS011;31672;47.638;19.026;2022-07-29T17:08:01;6.43;;;2.50;;
42760;SDS011;31672;47.638;19.026;2022-07-29T17:13:04;5.22;;;2.60;;
42760;SDS011;31672;47.638;19.026;2022-07-29T17:18:10;3.83;;;2.25;;
42760;SDS011;31672;47.638;19.026;2022-07-29T17:23:14;7.40;;;2.60;;
42760;SDS011;31672;47.638;19.026;2022-07-29T17:28:16;7.47;;;2.95;;
42760;SDS011;31672;47.638;19.026;2022-07-29T17:33:19;5.72;;;3.40;;
42760;SDS011;31672;47.638;19.026;2022-07-29T17:38:22;3.42;;;2.50;;
42760;SDS011;31672;47.638;19.026;2022-07-29T17:43:25;3.78;;;2.40;;
42760;SDS011;31672;47.638;19.026;2022-07-29T17:48:28;5.75;;;2.47;;
42760;SDS011;31672;47.638;19.026;2022-07-29T17:53:31;6.05;;;2.60;;
42760;SDS011;31672;47.638;19.026;2022-07-29T17:58:34;3.70;;;2.50;;
42760;SDS011;31672;47.638;19.026;2022-07-29T18:03:36;6.72;;;2.45;;
42760;SDS011;31672;47.638;19.026;2022-07-29T18:08:39;3.97;;;2.30;;
42760;SDS011;31672;47.638;19.026;2022-07-29T18:13:42;4.22;;;2.47;;
42760;SDS011;31672;47.638;19.026;2022-07-29T18:18:45;7.47;;;3.72;;
42760;SDS011;31672;47.638;19.026;2022-07-29T18:23:49;3.72;;;2.65;;
42760;SDS011;31672;47.638;19.026;2022-07-29T18:28:53;5.05;;;2.42;;
42760;SDS011;31672;47.638;19.026;2022-07-29T18:33:56;3.65;;;2.35;;
42760;SDS011;31672;47.638;19.026;2022-07-29T18:39:01;3.85;;;2.30;;
42760;SDS011;31672;47.638;19.026;2022-07-29T18:44:04;3.75;;;2.20;;
42760;SDS011;31672;47.638;19.026;2022-07-29T18:49:07;4.13;;;2.55;;
42760;SDS011;31672;47.638;19.026;2022-07-29T18:54:10;3.78;;;2.85;;
42760;SDS011;31672;47.638;19.026;2022-07-29T18:59:13;3.42;;;2.28;;
42760;SDS011;31672;47.638;19.026;2022-07-29T19:04:18;3.28;;;2.58;;
42760;SDS011;31672;47.638;19.026;2022-07-29T19:09:21;4.50;;;2.70;;
42760;SDS011;31672;47.638;19.026;2022-07-29T19:14:23;4.65;;;2.47;;
42760;SDS011;31672;47.638;19.026;2022-07-29T19:19:26;4.70;;;2.70;;
42760;SDS011;31672;47.638;19.026;2022-07-29T19:24:29;3.40;;;2.30;;
42760;SDS011;31672;47.638;19.026;2022-07-29T19:29:32;4.03;;;2.58;;
42760;SDS011;31672;47.638;19.026;2022-07-29T19:34:36;3.15;;;2.67;;
42760;SDS011;31672;47.638;19.026;2022-07-29T19:39:39;2.65;;;2.20;;
42760;SDS011;31672;47.638;19.026;2022-07-29T19:44:42;3.88;;;2.80;;
42760;SDS011;31672;47.638;19.026;2022-07-29T19:49:45;3.08;;;2.55;;
42760;SDS011;31672;47.638;19.026;2022-07-29T19:54:47;4.70;;;2.25;;
42760;SDS011;31672;47.638;19.026;2022-07-29T19:59:50;5.82;;;2.80;;
42760;SDS011;31672;47.638;19.026;2022-07-29T20:04:53;3.20;;;2.90;;
42760;SDS011;31672;47.638;19.026;2022-07-29T20:09:56;2.90;;;2.25;;
42760;SDS011;31672;47.638;19.026;2022-07-29T20:14:59;3.17;;;2.45;;
42760;SDS011;31672;47.638;19.026;2022-07-29T20:20:03;3.90;;;2.75;;
42760;SDS011;31672;47.638;19.026;2022-07-29T20:25:07;4.78;;;2.58;;
42760;SDS011;31672;47.638;19.026;2022-07-29T20:30:11;3.30;;;2.63;;
42760;SDS011;31672;47.638;19.026;2022-07-29T20:35:15;3.22;;;2.58;;
42760;SDS011;31672;47.638;19.026;2022-07-29T20:40:20;5.72;;;3.05;;
42760;SDS011;31672;47.638;19.026;2022-07-29T20:45:24;3.58;;;2.80;;
42760;SDS011;31672;47.638;19.026;2022-07-29T20:50:27;5.75;;;3.13;;
42760;SDS011;31672;47.638;19.026;2022-07-29T20:55:30;5.20;;;2.75;;
42760;SDS011;31672;47.638;19.026;2022-07-29T21:00:33;4.53;;;2.22;;
42760;SDS011;31672;47.638;19.026;2022-07-29T21:05:36;3.95;;;2.75;;
42760;SDS011;31672;47.638;19.026;2022-07-29T21:10:43;3.40;;;2.80;;
42760;SDS011;31672;47.638;19.026;2022-07-29T21:15:46;3.30;;;2.42;;
42760;SDS011;31672;47.638;19.026;2022-07-29T21:20:51;3.85;;;2.90;;
42760;SDS011;31672;47.638;19.026;2022-07-29T21:25:56;5.15;;;3.08;;
42760;SDS011;31672;47.638;19.026;2022-07-29T21:31:00;4.45;;;2.70;;
42760;SDS011;31672;47.638;19.026;2022-07-29T21:36:08;3.53;;;2.85;;
42760;SDS011;31672;47.638;19.026;2022-07-29T21:41:33;4.00;;;2.38;;
42760;SDS011;31672;47.638;19.026;2022-07-29T21:46:36;3.70;;;2.75;;
42760;SDS011;31672;47.638;19.026;2022-07-29T21:51:39;4.03;;;3.00;;
42760;SDS011;31672;47.638;19.026;2022-07-29T21:56:42;3.88;;;2.83;;
42760;SDS011;31672;47.638;19.026;2022-07-29T22:01:52;5.13;;;2.78;;
42760;SDS011;31672;47.638;19.026;2022-07-29T22:06:55;3.60;;;2.88;;
42760;SDS011;31672;47.638;19.026;2022-07-29T22:12:00;5.05;;;2.40;;
42760;SDS011;31672;47.638;19.026;2022-07-29T22:17:03;2.97;;;2.70;;
42760;SDS011;31672;47.638;19.026;2022-07-29T22:22:06;2.97;;;2.67;;
42760;SDS011;31672;47.638;19.026;2022-07-29T22:27:09;3.15;;;2.58;;
42760;SDS011;31672;47.638;19.026;2022-07-29T22:32:12;3.33;;;2.72;;
42760;SDS011;31672;47.638;19.026;2022-07-29T22:37:15;4.60;;;2.90;;
42760;SDS011;31672;47.638;19.026;2022-07-29T22:42:18;5.38;;;3.05;;
42760;SDS011;31672;47.638;19.026;2022-07-29T22:47:21;3.90;;;3.33;;
42760;SDS011;31672;47.638;19.026;2022-07-29T22:52:44;4.60;;;3.63;;
42760;SDS011;31672;47.638;19.026;2022-07-29T22:57:48;3.25;;;2.95;;
42760;SDS011;31672;47.638;19.026;2022-07-29T23:02:51;4.50;;;3.15;;
42760;SDS011;31672;47.638;19.026;2022-07-29T23:07:54;3.90;;;3.15;;
42760;SDS011;31672;47.638;19.026;2022-07-29T23:12:57;5.63;;;3.17;;
42760;SDS011;31672;47.638;19.026;2022-07-29T23:17:59;3.60;;;2.95;;
42760;SDS011;31672;47.638;19.026;2022-07-29T23:23:02;3.35;;;2.90;;
42760;SDS011;31672;47.638;19.026;2022-07-29T23:28:05;3.92;;;3.00;;
42760;SDS011;31672;47.638;19.026;2022-07-29T23:33:14;3.85;;;3.35;;
42760;SDS011;31672;47.638;19.026;2022-07-29T23:38:17;4.40;;;2.65;;
42760;SDS011;31672;47.638;19.026;2022-07-29T23:43:19;5.03;;;3.08;;
42760;SDS011;31672;47.638;19.026;2022-07-29T23:48:22;4.07;;;3.20;;
42760;SDS011;31672;47.638;19.026;2022-07-29T23:53:26;3.05;;;2.70;;
42760;SDS011;31672;47.638;19.026;2022-07-29T23:58:29;8.88;;;3.17;;
